createdAt,value
2022-10-31T00:01:01.898Z,94730.25
2022-10-31T00:03:28.520Z,94742.53
2022-10-31T00:05:55.184Z,94743.91
2022-10-31T00:08:21.806Z,94743.66
2022-10-31T00:10:48.480Z,94736.31
2022-10-31T00:13:15.519Z,94743.06
2022-10-31T00:15:42.396Z,94730.13
2022-10-31T00:18:10.820Z,94746.16
2022-10-31T00:20:38.929Z,94747.06
2022-10-31T00:23:07.240Z,94742.13
2022-10-31T00:25:36.896Z,94742.38
2022-10-31T00:28:05.425Z,94746.78
2022-10-31T00:30:32.154Z,94735.19
2022-10-31T00:32:59.448Z,94734.53
2022-10-31T00:35:26.391Z,94750.25
2022-10-31T00:37:53.565Z,94745.16
2022-10-31T00:40:20.406Z,94752.91
2022-10-31T00:42:47.056Z,94750.41
2022-10-31T00:45:14.013Z,94749.59
2022-10-31T00:47:40.664Z,94752.44
2022-10-31T00:50:08.149Z,94751.19
2022-10-31T00:52:34.906Z,94750.41
2022-10-31T00:55:02.435Z,94754.72
2022-10-31T00:57:29.098Z,94752.16
2022-10-31T00:59:55.775Z,94751.84
2022-10-31T01:02:22.600Z,94753.56
2022-10-31T01:04:49.500Z,94750.53
2022-10-31T01:07:16.126Z,94747.84
2022-10-31T01:09:44.929Z,94748.34
2022-10-31T01:12:11.650Z,94740.75
2022-10-31T01:14:44.193Z,94745.66
2022-10-31T01:17:10.833Z,94747.75
2022-10-31T01:19:37.523Z,94746.78
2022-10-31T01:22:04.178Z,94730.13
2022-10-31T01:24:30.841Z,94743.44
2022-10-31T01:26:57.513Z,94732.41
2022-10-31T01:29:24.210Z,94745.66
2022-10-31T01:31:50.865Z,94736.69
2022-10-31T01:34:18.288Z,94746.66
2022-10-31T01:36:47.853Z,94739.81
2022-10-31T01:39:16.425Z,94738.53
2022-10-31T01:41:47.062Z,94734.00
2022-10-31T01:44:16.968Z,94736.16
2022-10-31T01:46:49.854Z,94730.31
2022-10-31T01:49:43.509Z,94729.81
2022-10-31T01:52:16.501Z,94730.16
2022-10-31T01:54:48.472Z,94734.25
2022-10-31T01:57:16.779Z,94731.53
2022-10-31T01:59:48.568Z,94731.94
2022-10-31T02:02:17.978Z,94719.06
2022-10-31T02:04:47.036Z,94726.50
2022-10-31T02:07:25.053Z,94715.63
2022-10-31T02:09:54.042Z,94716.88
2022-10-31T02:12:21.577Z,94723.03
2022-10-31T02:14:48.560Z,94723.22
2022-10-31T02:17:15.879Z,94727.81
2022-10-31T02:20:13.322Z,94726.72
2022-10-31T02:22:58.937Z,94723.69
2022-10-31T02:25:40.768Z,94720.22
2022-10-31T02:28:39.908Z,94720.22
2022-10-31T02:31:19.780Z,94719.97
2022-10-31T02:34:36.156Z,94714.97
2022-10-31T02:37:14.605Z,94714.25
2022-10-31T02:39:55.670Z,94714.56
2022-10-31T02:42:47.666Z,94713.31
2022-10-31T02:45:33.895Z,94703.53
2022-10-31T02:48:04.362Z,94714.63
2022-10-31T02:50:35.211Z,94706.72
2022-10-31T02:53:03.304Z,94707.19
2022-10-31T02:55:30.864Z,94710.06
2022-10-31T02:58:11.667Z,94716.88
2022-10-31T03:00:51.173Z,94710.41
2022-10-31T03:03:39.051Z,94706.88
2022-10-31T03:06:17.443Z,94708.44
2022-10-31T03:09:00.499Z,94694.88
2022-10-31T03:11:38.909Z,94700.31
2022-10-31T03:14:13.584Z,94706.38
2022-10-31T03:16:52.644Z,94714.78
2022-10-31T03:19:31.672Z,94704.53
2022-10-31T03:22:26.317Z,94711.69
2022-10-31T03:24:54.916Z,94700.19
2022-10-31T03:27:28.623Z,94702.25
2022-10-31T03:30:00.560Z,94704.31
2022-10-31T03:32:35.609Z,94695.00
2022-10-31T03:35:08.693Z,94702.88
2022-10-31T03:37:37.255Z,94703.34
2022-10-31T03:40:08.044Z,94707.13
2022-10-31T03:42:39.274Z,94707.28
2022-10-31T03:45:09.194Z,94705.53
2022-10-31T03:47:38.734Z,94704.19
2022-10-31T03:50:11.682Z,94706.56
2022-10-31T03:53:02.496Z,94705.91
2022-10-31T03:55:55.529Z,94699.75
2022-10-31T03:58:33.506Z,94697.41
2022-10-31T04:01:03.412Z,94700.63
2022-10-31T04:03:35.819Z,94701.25
2022-10-31T04:06:10.325Z,94702.69
2022-10-31T04:08:45.282Z,94696.06
2022-10-31T04:11:19.246Z,94700.69
2022-10-31T04:13:50.244Z,94696.94
2022-10-31T04:16:24.829Z,94707.38
2022-10-31T04:18:51.700Z,94705.97
2022-10-31T04:21:18.533Z,94706.47
2022-10-31T04:23:45.210Z,94709.78
2022-10-31T04:26:19.188Z,94705.72
2022-10-31T04:28:46.884Z,94701.81
2022-10-31T04:31:14.218Z,94696.16
2022-10-31T04:33:43.091Z,94700.41
2022-10-31T04:36:10.395Z,94697.72
2022-10-31T04:38:37.691Z,94695.38
2022-10-31T04:41:12.060Z,94688.28
2022-10-31T04:44:01.441Z,94685.75
2022-10-31T04:46:28.278Z,94696.66
2022-10-31T04:48:57.560Z,94687.81
2022-10-31T04:51:24.668Z,94688.47
2022-10-31T04:53:51.893Z,94681.19
2022-10-31T04:56:38.550Z,94688.00
2022-10-31T04:59:11.677Z,94688.97
2022-10-31T05:01:52.019Z,94684.88
2022-10-31T05:04:25.438Z,94687.88
2022-10-31T05:06:53.553Z,94686.94
2022-10-31T05:09:20.395Z,94692.94
2022-10-31T05:11:47.147Z,94690.25
2022-10-31T05:14:46.057Z,94682.50
2022-10-31T05:17:35.403Z,94678.72
2022-10-31T05:20:22.059Z,94682.03
2022-10-31T05:23:03.911Z,94679.66
2022-10-31T05:25:30.941Z,94678.88
2022-10-31T05:27:58.877Z,94677.16
2022-10-31T05:30:29.531Z,94677.94
2022-10-31T05:32:56.512Z,94674.47
2022-10-31T05:35:55.385Z,94679.84
2022-10-31T05:38:34.390Z,94677.16
2022-10-31T05:41:10.795Z,94680.47
2022-10-31T05:43:39.339Z,94673.53
2022-10-31T05:46:07.106Z,94672.44
2022-10-31T05:49:00.205Z,94667.06
2022-10-31T05:51:29.331Z,94667.38
2022-10-31T05:53:56.134Z,94667.22
2022-10-31T05:56:23.219Z,94670.22
2022-10-31T05:58:49.896Z,94671.00
2022-10-31T06:01:16.811Z,94661.88
2022-10-31T06:03:45.613Z,94652.44
2022-10-31T06:06:16.165Z,94654.16
2022-10-31T06:08:42.858Z,94651.63
2022-10-31T06:11:15.283Z,94650.84
2022-10-31T06:14:05.723Z,94648.94
2022-10-31T06:16:53.180Z,94652.59
2022-10-31T06:19:52.075Z,94653.53
2022-10-31T06:22:24.125Z,94666.78
2022-10-31T06:24:50.833Z,94654.00
2022-10-31T06:27:23.109Z,94659.22
2022-10-31T06:29:49.800Z,94658.09
2022-10-31T06:32:27.923Z,94660.31
2022-10-31T06:34:54.581Z,94652.72
2022-10-31T06:37:21.371Z,94658.06
2022-10-31T06:39:50.188Z,94658.63
2022-10-31T06:42:17.939Z,94654.97
2022-10-31T06:44:44.702Z,94646.63
2022-10-31T06:47:41.444Z,94652.44
2022-10-31T06:50:17.708Z,94653.59
2022-10-31T06:52:52.299Z,94658.28
2022-10-31T06:55:21.689Z,94658.75
2022-10-31T06:57:58.941Z,94661.63
2022-10-31T07:00:31.561Z,94656.13
2022-10-31T07:03:11.967Z,94664.81
2022-10-31T07:05:38.783Z,94663.72
2022-10-31T07:08:12.398Z,94664.16
2022-10-31T07:10:41.522Z,94670.25
2022-10-31T07:13:14.672Z,94671.19
2022-10-31T07:15:49.328Z,94669.22
2022-10-31T07:18:16.465Z,94660.06
2022-10-31T07:20:43.243Z,94669.09
2022-10-31T07:23:11.920Z,94661.81
2022-10-31T07:25:40.198Z,94679.03
2022-10-31T07:28:11.789Z,94665.78
2022-10-31T07:30:39.662Z,94663.31
2022-10-31T07:33:06.841Z,94673.66
2022-10-31T07:35:56.497Z,94673.22
2022-10-31T07:38:28.602Z,94672.47
2022-10-31T07:40:55.403Z,94666.94
2022-10-31T07:43:23.815Z,94663.72
2022-10-31T07:46:19.451Z,94665.59
2022-10-31T07:48:48.811Z,94671.84
2022-10-31T07:51:33.958Z,94669.25
2022-10-31T07:54:28.289Z,94664.03
2022-10-31T07:56:54.929Z,94665.28
2022-10-31T07:59:21.718Z,94666.38
2022-10-31T08:01:48.623Z,94665.22
2022-10-31T08:04:30.453Z,94662.69
2022-10-31T08:07:15.412Z,94659.25
2022-10-31T08:09:48.030Z,94657.69
2022-10-31T08:12:25.676Z,94659.78
2022-10-31T08:14:53.596Z,94656.28
2022-10-31T08:17:20.892Z,94658.25
2022-10-31T08:19:59.075Z,94650.53
2022-10-31T08:22:30.959Z,94655.78
2022-10-31T08:24:59.024Z,94657.56
2022-10-31T08:27:25.793Z,94653.59
2022-10-31T08:29:54.256Z,94648.78
2022-10-31T08:32:23.225Z,94652.59
2022-10-31T08:34:52.837Z,94654.41
2022-10-31T08:37:28.578Z,94649.38
2022-10-31T08:39:56.229Z,94652.06
2022-10-31T08:42:22.859Z,94644.13
2022-10-31T08:44:49.639Z,94641.09
2022-10-31T08:47:20.897Z,94645.69
2022-10-31T08:49:48.192Z,94643.34
2022-10-31T08:52:15.986Z,94646.38
2022-10-31T08:54:44.357Z,94646.44
2022-10-31T08:57:49.384Z,94638.59
2022-10-31T09:00:16.509Z,94642.94
2022-10-31T09:03:03.722Z,94648.88
2022-10-31T09:05:33.367Z,94643.47
2022-10-31T09:08:01.890Z,94640.41
2022-10-31T09:10:31.760Z,94638.31
2022-10-31T09:13:13.483Z,94642.59
2022-10-31T09:16:00.493Z,94638.03
2022-10-31T09:18:32.882Z,94640.47
2022-10-31T09:21:01.089Z,94640.75
2022-10-31T09:23:30.268Z,94638.19
2022-10-31T09:26:00.819Z,94636.88
2022-10-31T09:28:37.169Z,94642.22
2022-10-31T09:31:09.027Z,94638.50
2022-10-31T09:33:55.819Z,94638.81
2022-10-31T09:36:44.052Z,94637.75
2022-10-31T09:39:18.177Z,94640.75
2022-10-31T09:41:51.828Z,94638.19
2022-10-31T09:45:03.748Z,94638.53
2022-10-31T09:48:11.064Z,94640.66
2022-10-31T09:50:54.988Z,94639.31
2022-10-31T09:54:07.153Z,94640.72
2022-10-31T09:56:35.847Z,94637.94
2022-10-31T09:59:06.077Z,94632.22
2022-10-31T10:01:46.753Z,94637.31
2022-10-31T10:04:34.942Z,94635.22
2022-10-31T10:07:23.871Z,94635.47
2022-10-31T10:10:35.416Z,94624.91
2022-10-31T10:13:36.044Z,94631.84
2022-10-31T10:16:05.713Z,94625.66
2022-10-31T10:18:56.686Z,94624.94
2022-10-31T10:21:52.716Z,94618.84
2022-10-31T10:24:48.633Z,94618.63
2022-10-31T10:27:29.233Z,94620.00
2022-10-31T10:30:12.214Z,94613.44
2022-10-31T10:32:55.864Z,94615.00
2022-10-31T10:35:37.408Z,94613.78
2022-10-31T10:38:32.072Z,94619.88
2022-10-31T10:41:00.834Z,94608.53
2022-10-31T10:43:38.070Z,94615.59
2022-10-31T10:46:42.337Z,94615.13
2022-10-31T10:49:30.809Z,94609.88
2022-10-31T10:52:42.188Z,94613.97
2022-10-31T10:55:40.729Z,94608.31
2022-10-31T10:58:09.473Z,94607.63
2022-10-31T11:00:50.777Z,94607.06
2022-10-31T11:03:18.999Z,94593.34
2022-10-31T11:05:52.552Z,94596.38
2022-10-31T11:08:35.434Z,94591.00
2022-10-31T11:11:04.767Z,94579.28
2022-10-31T11:13:33.917Z,94573.09
2022-10-31T11:16:05.730Z,94575.69
2022-10-31T11:18:35.982Z,94575.56
2022-10-31T11:21:05.354Z,94573.03
2022-10-31T11:23:33.482Z,94569.22
2022-10-31T11:26:02.961Z,94567.81
2022-10-31T11:28:31.491Z,94567.19
2022-10-31T11:31:00.469Z,94556.06
2022-10-31T11:33:53.510Z,94562.50
2022-10-31T11:36:24.401Z,94566.13
2022-10-31T11:38:52.473Z,94550.16
2022-10-31T11:41:20.789Z,94553.28
2022-10-31T11:43:51.960Z,94553.25
2022-10-31T11:46:24.793Z,94547.59
2022-10-31T11:48:55.563Z,94544.94
2022-10-31T11:51:25.837Z,94538.44
2022-10-31T11:53:56.981Z,94543.16
2022-10-31T11:56:27.317Z,94530.75
2022-10-31T11:59:06.778Z,94533.22
2022-10-31T12:01:34.345Z,94525.88
2022-10-31T12:04:08.699Z,94526.97
2022-10-31T12:06:43.116Z,94526.22
2022-10-31T12:09:19.158Z,94522.72
2022-10-31T12:12:05.290Z,94521.94
2022-10-31T12:15:05.895Z,94520.47
2022-10-31T12:20:40.352Z,94511.84
2022-10-31T12:23:16.248Z,94514.19
2022-10-31T12:25:55.276Z,94507.16
2022-10-31T12:28:55.953Z,94497.09
2022-10-31T12:31:47.484Z,94501.34
2022-10-31T12:34:17.131Z,94492.72
2022-10-31T12:37:04.048Z,94484.84
2022-10-31T12:39:48.887Z,94476.50
2022-10-31T12:42:47.394Z,94480.84
2022-10-31T12:45:38.116Z,94481.53
2022-10-31T12:48:17.006Z,94490.56
2022-10-31T12:51:04.837Z,94483.00
2022-10-31T12:53:47.058Z,94475.22
2022-10-31T12:56:30.735Z,94470.19
2022-10-31T12:59:34.966Z,94474.03
2022-10-31T13:02:17.177Z,94471.63
2022-10-31T13:04:51.740Z,94463.44
2022-10-31T13:07:29.785Z,94456.78
2022-10-31T13:10:06.974Z,94455.94
2022-10-31T13:12:37.519Z,94448.91
2022-10-31T13:15:27.064Z,94447.28
2022-10-31T13:18:15.858Z,94441.44
2022-10-31T13:20:47.669Z,94444.94
2022-10-31T13:26:30.188Z,94433.97
2022-10-31T13:29:15.852Z,94433.91
2022-10-31T13:31:43.329Z,94425.22
2022-10-31T13:34:36.377Z,94420.53
2022-10-31T13:37:18.234Z,94420.13
2022-10-31T13:40:08.160Z,94408.81
2022-10-31T13:42:56.427Z,94407.06
2022-10-31T13:45:25.629Z,94402.25
2022-10-31T13:48:19.653Z,94413.41
2022-10-31T13:51:03.210Z,94414.38
2022-10-31T13:53:43.796Z,94411.28
2022-10-31T13:56:10.417Z,94409.22
2022-10-31T13:58:37.594Z,94403.03
2022-10-31T14:01:21.170Z,94400.75
2022-10-31T14:04:07.759Z,94397.56
2022-10-31T14:06:58.401Z,94385.94
2022-10-31T14:09:34.153Z,94385.78
2022-10-31T14:12:23.764Z,94381.91
2022-10-31T14:14:55.747Z,94383.78
2022-10-31T14:17:24.845Z,94374.09
2022-10-31T14:20:23.115Z,94372.44
2022-10-31T14:22:50.085Z,94365.47
2022-10-31T14:25:27.066Z,94377.84
2022-10-31T14:27:53.842Z,94367.63
2022-10-31T14:30:23.922Z,94364.25
2022-10-31T14:32:53.373Z,94376.06
2022-10-31T14:35:22.037Z,94372.13
2022-10-31T14:38:07.526Z,94368.56
2022-10-31T14:40:55.987Z,94364.59
2022-10-31T14:43:40.880Z,94369.50
2022-10-31T14:46:46.564Z,94369.00
2022-10-31T14:49:50.484Z,94371.28
2022-10-31T14:52:19.783Z,94370.94
2022-10-31T14:54:55.908Z,94366.63
2022-10-31T14:57:37.386Z,94363.56
2022-10-31T15:00:09.680Z,94363.59
2022-10-31T15:03:07.507Z,94372.84
2022-10-31T15:05:41.729Z,94361.53
2022-10-31T15:08:15.154Z,94359.03
2022-10-31T15:10:46.787Z,94349.19
2022-10-31T15:13:22.608Z,94349.81
2022-10-31T15:15:56.710Z,94348.19
2022-10-31T15:18:27.169Z,94342.59
2022-10-31T15:20:56.180Z,94349.41
2022-10-31T15:23:26.472Z,94356.97
2022-10-31T15:26:00.481Z,94355.38
2022-10-31T15:28:27.718Z,94354.63
2022-10-31T15:30:59.573Z,94350.72
2022-10-31T15:33:33.643Z,94348.34
2022-10-31T15:36:04.638Z,94347.81
2022-10-31T15:38:31.704Z,94343.75
2022-10-31T15:41:06.982Z,94339.66
2022-10-31T15:43:40.852Z,94335.78
2022-10-31T15:46:11.094Z,94332.41
2022-10-31T15:48:39.417Z,94334.63
2022-10-31T15:51:06.080Z,94331.31
2022-10-31T15:53:37.364Z,94333.59
2022-10-31T15:56:08.768Z,94330.69
2022-10-31T15:58:44.790Z,94327.91
2022-10-31T16:01:23.604Z,94326.63
2022-10-31T16:04:04.349Z,94336.16
2022-10-31T16:06:32.655Z,94341.91
2022-10-31T16:08:59.519Z,94343.84
2022-10-31T16:11:35.247Z,94345.41
2022-10-31T16:14:23.114Z,94350.81
2022-10-31T16:16:54.840Z,94351.22
2022-10-31T16:19:28.950Z,94352.38
2022-10-31T16:22:04.786Z,94346.84
2022-10-31T16:24:39.854Z,94343.63
2022-10-31T16:27:08.432Z,94347.25
2022-10-31T16:29:42.270Z,94345.13
2022-10-31T16:32:31.457Z,94334.38
2022-10-31T16:35:02.763Z,94335.22
2022-10-31T16:37:29.594Z,94330.81
2022-10-31T16:39:56.322Z,94338.84
2022-10-31T16:42:23.074Z,94342.22
2022-10-31T16:44:50.100Z,94333.28
2022-10-31T16:47:18.295Z,94337.88
2022-10-31T16:49:48.681Z,94333.78
2022-10-31T16:52:15.915Z,94332.88
2022-10-31T16:54:42.556Z,94338.59
2022-10-31T16:57:15.897Z,94337.75
2022-10-31T16:59:42.977Z,94341.81
2022-10-31T17:02:17.423Z,94348.63
2022-10-31T17:04:44.940Z,94348.78
2022-10-31T17:07:11.625Z,94352.44
2022-10-31T17:09:38.260Z,94350.81
2022-10-31T17:12:06.813Z,94355.31
2022-10-31T17:14:34.662Z,94350.41
2022-10-31T17:17:01.312Z,94352.16
2022-10-31T17:19:27.937Z,94350.63
2022-10-31T17:21:54.691Z,94344.34
2022-10-31T17:24:21.332Z,94348.09
2022-10-31T17:26:48.034Z,94347.31
2022-10-31T17:29:15.228Z,94341.59
2022-10-31T17:31:42.324Z,94344.34
2022-10-31T17:34:09.501Z,94340.03
2022-10-31T17:36:36.511Z,94343.16
2022-10-31T17:39:05.598Z,94338.00
2022-10-31T17:41:32.212Z,94344.53
2022-10-31T17:43:59.836Z,94335.56
2022-10-31T17:46:28.365Z,94333.56
2022-10-31T17:48:55.034Z,94319.13
2022-10-31T17:51:21.739Z,94329.69
2022-10-31T17:53:48.480Z,94323.53
2022-10-31T17:56:15.164Z,94330.59
2022-10-31T17:58:41.916Z,94337.19
2022-10-31T18:01:10.989Z,94332.94
2022-10-31T18:03:38.638Z,94338.91
2022-10-31T18:06:05.533Z,94330.06
2022-10-31T18:08:34.449Z,94335.28
2022-10-31T18:11:06.581Z,94340.78
2022-10-31T18:13:33.165Z,94344.75
2022-10-31T18:15:59.813Z,94339.59
2022-10-31T18:18:26.775Z,94333.69
2022-10-31T18:20:57.405Z,94332.16
2022-10-31T18:23:24.085Z,94327.09
2022-10-31T18:25:50.693Z,94323.28
2022-10-31T18:28:17.336Z,94331.69
2022-10-31T18:30:43.981Z,94331.13
2022-10-31T18:33:10.667Z,94328.91
2022-10-31T18:35:38.636Z,94334.47
2022-10-31T18:38:06.830Z,94328.13
2022-10-31T18:40:35.941Z,94323.97
2022-10-31T18:43:03.610Z,94329.25
2022-10-31T18:45:41.600Z,94326.75
2022-10-31T18:48:14.530Z,94325.75
2022-10-31T18:50:41.766Z,94319.25
2022-10-31T18:53:08.883Z,94324.50
2022-10-31T18:55:43.898Z,94306.13
2022-10-31T18:58:14.146Z,94311.72
2022-10-31T19:00:40.781Z,94307.25
2022-10-31T19:03:07.555Z,94306.47
2022-10-31T19:05:34.280Z,94312.19
2022-10-31T19:08:00.952Z,94311.84
2022-10-31T19:10:27.910Z,94307.13
2022-10-31T19:12:54.580Z,94301.66
2022-10-31T19:15:21.304Z,94298.22
2022-10-31T19:17:47.998Z,94304.03
2022-10-31T19:20:14.679Z,94305.16
2022-10-31T19:22:41.324Z,94302.91
2022-10-31T19:25:10.445Z,94295.06
2022-10-31T19:27:38.155Z,94302.44
2022-10-31T19:30:05.793Z,94301.22
2022-10-31T19:32:32.729Z,94298.44
2022-10-31T19:34:59.331Z,94299.31
2022-10-31T19:37:26.094Z,94301.78
2022-10-31T19:39:52.769Z,94295.41
2022-10-31T19:42:19.736Z,94288.69
2022-10-31T19:44:46.360Z,94292.63
2022-10-31T19:47:13.052Z,94291.84
2022-10-31T19:49:39.743Z,94299.00
2022-10-31T19:52:06.435Z,94302.13
2022-10-31T19:54:33.104Z,94302.91
2022-10-31T19:56:59.748Z,94304.72
2022-10-31T19:59:26.484Z,94298.84
2022-10-31T20:01:53.243Z,94290.78
2022-10-31T20:04:20.014Z,94295.66
2022-10-31T20:06:46.894Z,94292.06
2022-10-31T20:09:14.700Z,94287.13
2022-10-31T20:11:43.548Z,94282.94
2022-10-31T20:14:12.940Z,94272.53
2022-10-31T20:16:40.005Z,94288.41
2022-10-31T20:19:06.656Z,94265.94
2022-10-31T20:21:37.556Z,94281.91
2022-10-31T20:24:07.802Z,94271.41
2022-10-31T20:26:36.851Z,94275.66
2022-10-31T20:29:04.173Z,94279.50
2022-10-31T20:31:33.973Z,94276.59
2022-10-31T20:34:01.098Z,94271.78
2022-10-31T20:36:29.625Z,94258.72
2022-10-31T20:38:56.711Z,94269.25
2022-10-31T20:41:23.385Z,94270.38
2022-10-31T20:43:50.743Z,94270.09
2022-10-31T20:46:20.523Z,94266.56
2022-10-31T20:48:47.685Z,94266.34
2022-10-31T20:51:17.296Z,94272.50
2022-10-31T20:53:44.381Z,94272.84
2022-10-31T20:56:14.094Z,94280.34
2022-10-31T20:58:42.511Z,94275.69
2022-10-31T21:01:33.864Z,94277.03
2022-10-31T21:04:00.778Z,94288.66
2022-10-31T21:06:28.309Z,94316.44
2022-10-31T21:08:55.533Z,94313.66
2022-10-31T21:11:25.229Z,94322.25
2022-10-31T21:13:52.290Z,94328.97
2022-10-31T21:16:21.836Z,94327.97
2022-10-31T21:18:50.138Z,94301.31
2022-10-31T21:21:32.191Z,94319.91
2022-10-31T21:26:51.550Z,94321.16
2022-10-31T21:29:19.667Z,94319.72
2022-10-31T21:31:47.749Z,94324.41
2022-10-31T21:34:15.223Z,94326.41
2022-10-31T21:36:42.134Z,94314.22
2022-10-31T21:39:09.871Z,94318.47
2022-10-31T21:41:37.283Z,94323.28
2022-10-31T21:44:04.578Z,94316.78
2022-10-31T21:46:33.342Z,94324.84
2022-10-31T21:49:03.056Z,94319.28
2022-10-31T21:51:33.491Z,94323.53
2022-10-31T21:54:19.672Z,94314.13
2022-10-31T21:56:46.675Z,94324.22
2022-10-31T21:59:13.709Z,94323.53
2022-10-31T22:01:41.202Z,94327.53
2022-10-31T22:04:07.954Z,94324.63
2022-10-31T22:06:35.961Z,94313.34
2022-10-31T22:09:05.503Z,94319.81
2022-10-31T22:11:32.226Z,94324.50
2022-10-31T22:14:00.369Z,94325.88
2022-10-31T22:16:29.135Z,94321.47
2022-10-31T22:18:58.393Z,94319.38
2022-10-31T22:21:27.337Z,94311.72
2022-10-31T22:23:56.780Z,94310.19
2022-10-31T22:26:24.949Z,94323.53
2022-10-31T22:28:54.117Z,94320.72
2022-10-31T22:31:22.213Z,94322.16
2022-10-31T22:33:50.447Z,94315.00
2022-10-31T22:36:19.841Z,94318.25
2022-10-31T22:38:47.657Z,94316.91
2022-10-31T22:41:17.071Z,94303.56
2022-10-31T22:43:44.289Z,94306.81
2022-10-31T22:46:16.826Z,94303.59
2022-10-31T22:48:49.245Z,94290.59
2022-10-31T22:51:27.619Z,94284.19
2022-10-31T22:53:56.815Z,94285.09
2022-10-31T22:56:30.256Z,94272.44
2022-10-31T22:58:58.529Z,94273.09
2022-10-31T23:01:31.452Z,94264.13
2022-10-31T23:03:58.837Z,94263.72
2022-10-31T23:06:28.311Z,94267.41
2022-10-31T23:08:55.251Z,94265.94
2022-10-31T23:11:26.770Z,94264.72
2022-10-31T23:14:14.409Z,94253.75
2022-10-31T23:16:47.219Z,94258.34
2022-10-31T23:19:28.050Z,94264.97
2022-10-31T23:22:01.026Z,94275.91
2022-10-31T23:24:39.457Z,94289.69
2022-10-31T23:27:11.210Z,94288.09
2022-10-31T23:29:48.582Z,94293.69
2022-10-31T23:32:27.563Z,94284.06
2022-10-31T23:34:56.752Z,94276.13
2022-10-31T23:37:25.772Z,94266.63
2022-10-31T23:39:53.005Z,94278.03
2022-10-31T23:42:20.242Z,94289.03
2022-10-31T23:44:47.224Z,94295.63
2022-10-31T23:47:14.752Z,94302.91
2022-10-31T23:49:41.556Z,94284.09
2022-10-31T23:52:08.581Z,94297.53
2022-10-31T23:54:35.876Z,94273.44
2022-10-31T23:57:02.872Z,94289.69
2022-10-31T23:59:29.732Z,94274.69
